sensor_id;sensor_type;location;lat;lon;timestamp;P1;durP1;ratioP1;P2;durP2;ratioP2
35518;SDS011;21627;48.216;16.482;2024-01-27T00:00:33;1.98;;;0.77;;
35518;SDS011;21627;48.216;16.482;2024-01-27T00:03:00;3.00;;;0.77;;
35518;SDS011;21627;48.216;16.482;2024-01-27T00:05:28;3.63;;;0.70;;
35518;SDS011;21627;48.216;16.482;2024-01-27T00:07:57;4.72;;;0.70;;
35518;SDS011;21627;48.216;16.482;2024-01-27T00:10:24;1.73;;;0.80;;
35518;SDS011;21627;48.216;16.482;2024-01-27T00:12:51;1.02;;;0.80;;
35518;SDS011;21627;48.216;16.482;2024-01-27T00:15:18;1.88;;;0.80;;
35518;SDS011;21627;48.216;16.482;2024-01-27T00:17:46;2.58;;;0.90;;
35518;SDS011;21627;48.216;16.482;2024-01-27T00:20:13;2.05;;;0.80;;
35518;SDS011;21627;48.216;16.482;2024-01-27T00:22:40;1.85;;;1.05;;
35518;SDS011;21627;48.216;16.482;2024-01-27T00:25:08;2.45;;;0.88;;
35518;SDS011;21627;48.216;16.482;2024-01-27T00:27:35;1.42;;;0.85;;
35518;SDS011;21627;48.216;16.482;2024-01-27T00:30:03;2.15;;;0.90;;
35518;SDS011;21627;48.216;16.482;2024-01-27T00:32:31;2.08;;;0.70;;
35518;SDS011;21627;48.216;16.482;2024-01-27T00:35:00;1.80;;;0.70;;
35518;SDS011;21627;48.216;16.482;2024-01-27T00:37:28;8.00;;;0.90;;
35518;SDS011;21627;48.216;16.482;2024-01-27T00:39:55;3.63;;;0.90;;
35518;SDS011;21627;48.216;16.482;2024-01-27T00:42:22;1.50;;;0.80;;
35518;SDS011;21627;48.216;16.482;2024-01-27T00:44:51;3.97;;;1.00;;
35518;SDS011;21627;48.216;16.482;2024-01-27T00:47:19;2.33;;;0.60;;
35518;SDS011;21627;48.216;16.482;2024-01-27T00:49:46;0.75;;;0.70;;
35518;SDS011;21627;48.216;16.482;2024-01-27T00:52:13;1.67;;;0.93;;
35518;SDS011;21627;48.216;16.482;2024-01-27T00:54:40;7.45;;;0.90;;
35518;SDS011;21627;48.216;16.482;2024-01-27T00:57:07;1.48;;;0.90;;
35518;SDS011;21627;48.216;16.482;2024-01-27T00:59:34;1.60;;;0.77;;
35518;SDS011;21627;48.216;16.482;2024-01-27T01:02:01;0.70;;;0.70;;
35518;SDS011;21627;48.216;16.482;2024-01-27T01:04:29;1.02;;;0.70;;
35518;SDS011;21627;48.216;16.482;2024-01-27T01:06:56;5.18;;;0.70;;
35518;SDS011;21627;48.216;16.482;2024-01-27T01:09:24;1.75;;;0.70;;
35518;SDS011;21627;48.216;16.482;2024-01-27T01:11:51;1.50;;;0.80;;
35518;SDS011;21627;48.216;16.482;2024-01-27T01:14:18;3.67;;;0.70;;
35518;SDS011;21627;48.216;16.482;2024-01-27T01:16:45;1.10;;;0.60;;
35518;SDS011;21627;48.216;16.482;2024-01-27T01:19:12;3.65;;;0.60;;
35518;SDS011;21627;48.216;16.482;2024-01-27T01:21:39;3.72;;;0.70;;
35518;SDS011;21627;48.216;16.482;2024-01-27T01:24:06;0.68;;;0.60;;
35518;SDS011;21627;48.216;16.482;2024-01-27T01:26:34;1.90;;;0.98;;
35518;SDS011;21627;48.216;16.482;2024-01-27T01:29:01;0.98;;;0.85;;
35518;SDS011;21627;48.216;16.482;2024-01-27T01:31:28;2.50;;;0.82;;
35518;SDS011;21627;48.216;16.482;2024-01-27T01:33:55;2.42;;;0.90;;
35518;SDS011;21627;48.216;16.482;2024-01-27T01:36:22;2.17;;;0.77;;
35518;SDS011;21627;48.216;16.482;2024-01-27T01:38:50;1.60;;;0.77;;
35518;SDS011;21627;48.216;16.482;2024-01-27T01:41:17;1.25;;;0.65;;
35518;SDS011;21627;48.216;16.482;2024-01-27T01:43:44;3.17;;;0.90;;
35518;SDS011;21627;48.216;16.482;2024-01-27T01:46:11;2.75;;;0.88;;
35518;SDS011;21627;48.216;16.482;2024-01-27T01:48:39;2.15;;;1.25;;
35518;SDS011;21627;48.216;16.482;2024-01-27T01:51:06;2.83;;;0.80;;
35518;SDS011;21627;48.216;16.482;2024-01-27T01:53:35;2.15;;;0.82;;
35518;SDS011;21627;48.216;16.482;2024-01-27T01:56:02;2.72;;;0.85;;
35518;SDS011;21627;48.216;16.482;2024-01-27T01:58:30;1.98;;;1.10;;
35518;SDS011;21627;48.216;16.482;2024-01-27T02:01:00;1.23;;;0.90;;
35518;SDS011;21627;48.216;16.482;2024-01-27T02:03:28;1.77;;;0.63;;
35518;SDS011;21627;48.216;16.482;2024-01-27T02:05:55;1.23;;;0.80;;
35518;SDS011;21627;48.216;16.482;2024-01-27T02:08:23;2.08;;;0.77;;
35518;SDS011;21627;48.216;16.482;2024-01-27T02:10:50;2.72;;;0.98;;
35518;SDS011;21627;48.216;16.482;2024-01-27T02:15:46;3.15;;;1.10;;
35518;SDS011;21627;48.216;16.482;2024-01-27T02:18:15;1.23;;;0.80;;
35518;SDS011;21627;48.216;16.482;2024-01-27T02:20:43;3.42;;;0.80;;
35518;SDS011;21627;48.216;16.482;2024-01-27T02:23:10;1.88;;;1.00;;
35518;SDS011;21627;48.216;16.482;2024-01-27T02:25:37;1.45;;;0.85;;
35518;SDS011;21627;48.216;16.482;2024-01-27T02:28:04;3.85;;;1.15;;
35518;SDS011;21627;48.216;16.482;2024-01-27T02:30:32;1.50;;;0.80;;
35518;SDS011;21627;48.216;16.482;2024-01-27T02:32:59;2.88;;;1.10;;
35518;SDS011;21627;48.216;16.482;2024-01-27T02:35:28;2.38;;;1.20;;
35518;SDS011;21627;48.216;16.482;2024-01-27T02:37:55;1.40;;;0.80;;
35518;SDS011;21627;48.216;16.482;2024-01-27T02:40:22;1.77;;;0.80;;
35518;SDS011;21627;48.216;16.482;2024-01-27T02:42:50;0.90;;;0.82;;
35518;SDS011;21627;48.216;16.482;2024-01-27T02:45:17;1.45;;;0.90;;
35518;SDS011;21627;48.216;16.482;2024-01-27T02:47:45;3.58;;;1.15;;
35518;SDS011;21627;48.216;16.482;2024-01-27T02:50:12;3.90;;;1.33;;
35518;SDS011;21627;48.216;16.482;2024-01-27T02:52:40;3.05;;;1.20;;
35518;SDS011;21627;48.216;16.482;2024-01-27T02:55:07;1.75;;;1.10;;
35518;SDS011;21627;48.216;16.482;2024-01-27T02:57:34;3.13;;;1.17;;
35518;SDS011;21627;48.216;16.482;2024-01-27T03:00:01;1.55;;;0.85;;
35518;SDS011;21627;48.216;16.482;2024-01-27T03:02:31;2.33;;;1.37;;
35518;SDS011;21627;48.216;16.482;2024-01-27T03:04:58;5.03;;;1.15;;
35518;SDS011;21627;48.216;16.482;2024-01-27T03:07:26;3.05;;;1.02;;
35518;SDS011;21627;48.216;16.482;2024-01-27T03:09:53;1.33;;;0.88;;
35518;SDS011;21627;48.216;16.482;2024-01-27T03:12:21;2.83;;;1.30;;
35518;SDS011;21627;48.216;16.482;2024-01-27T03:14:49;1.40;;;0.90;;
35518;SDS011;21627;48.216;16.482;2024-01-27T03:17:17;3.72;;;1.05;;
35518;SDS011;21627;48.216;16.482;2024-01-27T03:19:44;6.05;;;1.30;;
35518;SDS011;21627;48.216;16.482;2024-01-27T03:22:15;2.17;;;1.27;;
35518;SDS011;21627;48.216;16.482;2024-01-27T03:24:42;4.82;;;1.40;;
35518;SDS011;21627;48.216;16.482;2024-01-27T03:27:09;2.67;;;1.20;;
35518;SDS011;21627;48.216;16.482;2024-01-27T03:29:36;4.35;;;1.10;;
35518;SDS011;21627;48.216;16.482;2024-01-27T03:32:04;6.97;;;1.00;;
35518;SDS011;21627;48.216;16.482;2024-01-27T03:34:31;2.27;;;1.00;;
35518;SDS011;21627;48.216;16.482;2024-01-27T03:36:59;4.43;;;1.20;;
35518;SDS011;21627;48.216;16.482;2024-01-27T03:39:26;2.67;;;1.02;;
35518;SDS011;21627;48.216;16.482;2024-01-27T03:41:53;3.67;;;1.20;;
35518;SDS011;21627;48.216;16.482;2024-01-27T03:44:20;7.07;;;1.30;;
35518;SDS011;21627;48.216;16.482;2024-01-27T03:46:47;2.42;;;1.40;;
35518;SDS011;21627;48.216;16.482;2024-01-27T03:49:15;3.78;;;1.20;;
35518;SDS011;21627;48.216;16.482;2024-01-27T03:51:42;5.82;;;1.35;;
35518;SDS011;21627;48.216;16.482;2024-01-27T03:54:09;6.68;;;1.25;;
35518;SDS011;21627;48.216;16.482;2024-01-27T03:56:36;2.03;;;1.05;;
35518;SDS011;21627;48.216;16.482;2024-01-27T03:59:03;7.73;;;1.20;;
35518;SDS011;21627;48.216;16.482;2024-01-27T04:01:32;1.48;;;1.10;;
35518;SDS011;21627;48.216;16.482;2024-01-27T04:03:59;3.80;;;1.57;;
35518;SDS011;21627;48.216;16.482;2024-01-27T04:06:26;2.90;;;1.13;;
35518;SDS011;21627;48.216;16.482;2024-01-27T04:08:54;1.70;;;1.07;;
35518;SDS011;21627;48.216;16.482;2024-01-27T04:11:21;5.47;;;1.17;;
35518;SDS011;21627;48.216;16.482;2024-01-27T04:13:49;2.17;;;1.00;;
35518;SDS011;21627;48.216;16.482;2024-01-27T04:16:17;1.33;;;1.10;;
35518;SDS011;21627;48.216;16.482;2024-01-27T04:18:44;2.90;;;1.17;;
35518;SDS011;21627;48.216;16.482;2024-01-27T04:21:12;2.40;;;1.00;;
35518;SDS011;21627;48.216;16.482;2024-01-27T04:23:39;3.58;;;1.30;;
35518;SDS011;21627;48.216;16.482;2024-01-27T04:26:06;3.65;;;1.50;;
35518;SDS011;21627;48.216;16.482;2024-01-27T04:28:35;4.03;;;1.27;;
35518;SDS011;21627;48.216;16.482;2024-01-27T04:31:03;2.93;;;1.10;;
35518;SDS011;21627;48.216;16.482;2024-01-27T04:33:30;3.72;;;1.23;;
35518;SDS011;21627;48.216;16.482;2024-01-27T04:35:58;4.40;;;1.40;;
35518;SDS011;21627;48.216;16.482;2024-01-27T04:38:25;3.22;;;1.35;;
35518;SDS011;21627;48.216;16.482;2024-01-27T04:40:53;2.47;;;1.20;;
35518;SDS011;21627;48.216;16.482;2024-01-27T04:43:20;3.03;;;1.30;;
35518;SDS011;21627;48.216;16.482;2024-01-27T04:45:47;2.92;;;1.25;;
35518;SDS011;21627;48.216;16.482;2024-01-27T04:48:15;9.63;;;1.52;;
35518;SDS011;21627;48.216;16.482;2024-01-27T04:50:44;3.70;;;1.50;;
35518;SDS011;21627;48.216;16.482;2024-01-27T04:53:11;2.35;;;1.40;;
35518;SDS011;21627;48.216;16.482;2024-01-27T04:55:38;4.88;;;1.40;;
35518;SDS011;21627;48.216;16.482;2024-01-27T04:58:06;9.00;;;1.77;;
35518;SDS011;21627;48.216;16.482;2024-01-27T05:00:33;5.70;;;1.48;;
35518;SDS011;21627;48.216;16.482;2024-01-27T05:03:01;4.75;;;1.40;;
35518;SDS011;21627;48.216;16.482;2024-01-27T05:05:31;5.32;;;1.35;;
35518;SDS011;21627;48.216;16.482;2024-01-27T05:08:02;2.07;;;1.30;;
35518;SDS011;21627;48.216;16.482;2024-01-27T05:10:30;5.90;;;1.90;;
35518;SDS011;21627;48.216;16.482;2024-01-27T05:12:57;4.33;;;1.47;;
35518;SDS011;21627;48.216;16.482;2024-01-27T05:15:24;4.30;;;1.50;;
35518;SDS011;21627;48.216;16.482;2024-01-27T05:17:51;1.50;;;1.20;;
35518;SDS011;21627;48.216;16.482;2024-01-27T05:20:19;5.90;;;1.63;;
35518;SDS011;21627;48.216;16.482;2024-01-27T05:22:46;2.40;;;1.23;;
35518;SDS011;21627;48.216;16.482;2024-01-27T05:25:13;4.93;;;1.50;;
35518;SDS011;21627;48.216;16.482;2024-01-27T05:27:41;5.65;;;1.33;;
35518;SDS011;21627;48.216;16.482;2024-01-27T05:30:08;3.87;;;1.60;;
35518;SDS011;21627;48.216;16.482;2024-01-27T05:32:36;3.33;;;1.48;;
35518;SDS011;21627;48.216;16.482;2024-01-27T05:35:03;4.18;;;1.50;;
35518;SDS011;21627;48.216;16.482;2024-01-27T05:37:31;2.13;;;1.23;;
35518;SDS011;21627;48.216;16.482;2024-01-27T05:39:58;5.50;;;1.40;;
35518;SDS011;21627;48.216;16.482;2024-01-27T05:42:25;6.40;;;1.63;;
35518;SDS011;21627;48.216;16.482;2024-01-27T05:44:53;5.57;;;1.63;;
35518;SDS011;21627;48.216;16.482;2024-01-27T05:47:20;3.57;;;1.47;;
35518;SDS011;21627;48.216;16.482;2024-01-27T05:49:47;5.43;;;1.70;;
35518;SDS011;21627;48.216;16.482;2024-01-27T05:52:15;9.10;;;1.77;;
35518;SDS011;21627;48.216;16.482;2024-01-27T05:57:19;6.23;;;1.97;;
35518;SDS011;21627;48.216;16.482;2024-01-27T05:59:46;12.32;;;1.48;;
35518;SDS011;21627;48.216;16.482;2024-01-27T06:02:13;3.90;;;1.63;;
35518;SDS011;21627;48.216;16.482;2024-01-27T06:04:41;5.67;;;1.83;;
35518;SDS011;21627;48.216;16.482;2024-01-27T06:07:08;4.35;;;1.67;;
35518;SDS011;21627;48.216;16.482;2024-01-27T06:09:36;3.40;;;1.70;;
35518;SDS011;21627;48.216;16.482;2024-01-27T06:12:04;4.20;;;1.60;;
35518;SDS011;21627;48.216;16.482;2024-01-27T06:14:32;5.72;;;1.75;;
35518;SDS011;21627;48.216;16.482;2024-01-27T06:17:00;5.60;;;2.00;;
35518;SDS011;21627;48.216;16.482;2024-01-27T06:19:30;3.27;;;1.63;;
35518;SDS011;21627;48.216;16.482;2024-01-27T06:21:58;5.33;;;1.80;;
35518;SDS011;21627;48.216;16.482;2024-01-27T06:24:28;11.87;;;1.87;;
35518;SDS011;21627;48.216;16.482;2024-01-27T06:26:55;6.13;;;1.80;;
35518;SDS011;21627;48.216;16.482;2024-01-27T06:29:22;5.50;;;2.27;;
35518;SDS011;21627;48.216;16.482;2024-01-27T06:31:49;3.47;;;1.50;;
35518;SDS011;21627;48.216;16.482;2024-01-27T06:34:17;2.17;;;1.80;;
35518;SDS011;21627;48.216;16.482;2024-01-27T06:36:44;8.37;;;1.97;;
35518;SDS011;21627;48.216;16.482;2024-01-27T06:39:12;4.07;;;2.00;;
35518;SDS011;21627;48.216;16.482;2024-01-27T06:41:39;5.77;;;2.20;;
35518;SDS011;21627;48.216;16.482;2024-01-27T06:44:06;7.27;;;2.20;;
35518;SDS011;21627;48.216;16.482;2024-01-27T06:46:34;5.90;;;1.87;;
35518;SDS011;21627;48.216;16.482;2024-01-27T06:49:01;6.30;;;2.00;;
35518;SDS011;21627;48.216;16.482;2024-01-27T06:51:29;11.30;;;2.30;;
35518;SDS011;21627;48.216;16.482;2024-01-27T06:53:56;4.63;;;2.10;;
35518;SDS011;21627;48.216;16.482;2024-01-27T06:56:23;6.03;;;2.03;;
35518;SDS011;21627;48.216;16.482;2024-01-27T06:58:50;2.93;;;1.80;;
35518;SDS011;21627;48.216;16.482;2024-01-27T07:01:17;7.33;;;2.10;;
35518;SDS011;21627;48.216;16.482;2024-01-27T07:03:44;6.30;;;1.80;;
35518;SDS011;21627;48.216;16.482;2024-01-27T07:06:12;4.90;;;1.97;;
35518;SDS011;21627;48.216;16.482;2024-01-27T07:08:39;4.70;;;2.57;;
35518;SDS011;21627;48.216;16.482;2024-01-27T07:11:06;6.80;;;2.50;;
35518;SDS011;21627;48.216;16.482;2024-01-27T07:13:33;5.03;;;2.23;;
35518;SDS011;21627;48.216;16.482;2024-01-27T07:16:00;5.80;;;2.37;;
35518;SDS011;21627;48.216;16.482;2024-01-27T07:18:27;9.23;;;2.37;;
35518;SDS011;21627;48.216;16.482;2024-01-27T07:20:56;10.93;;;2.45;;
35518;SDS011;21627;48.216;16.482;2024-01-27T07:23:25;4.07;;;1.97;;
35518;SDS011;21627;48.216;16.482;2024-01-27T07:25:53;7.95;;;2.35;;
35518;SDS011;21627;48.216;16.482;2024-01-27T07:28:20;4.60;;;2.08;;
35518;SDS011;21627;48.216;16.482;2024-01-27T07:30:47;6.47;;;2.20;;
35518;SDS011;21627;48.216;16.482;2024-01-27T07:33:14;5.67;;;2.30;;
35518;SDS011;21627;48.216;16.482;2024-01-27T07:35:41;8.43;;;2.42;;
35518;SDS011;21627;48.216;16.482;2024-01-27T07:38:08;6.70;;;2.00;;
35518;SDS011;21627;48.216;16.482;2024-01-27T07:40:35;5.87;;;2.27;;
35518;SDS011;21627;48.216;16.482;2024-01-27T07:43:02;6.67;;;2.20;;
35518;SDS011;21627;48.216;16.482;2024-01-27T07:45:30;6.65;;;2.20;;
35518;SDS011;21627;48.216;16.482;2024-01-27T07:47:58;7.33;;;2.90;;
35518;SDS011;21627;48.216;16.482;2024-01-27T07:50:27;7.77;;;2.43;;
35518;SDS011;21627;48.216;16.482;2024-01-27T07:52:54;6.40;;;1.93;;
35518;SDS011;21627;48.216;16.482;2024-01-27T07:55:22;7.37;;;2.07;;
35518;SDS011;21627;48.216;16.482;2024-01-27T07:57:49;7.30;;;1.97;;
35518;SDS011;21627;48.216;16.482;2024-01-27T08:00:16;5.87;;;2.10;;
35518;SDS011;21627;48.216;16.482;2024-01-27T08:02:43;2.80;;;1.70;;
35518;SDS011;21627;48.216;16.482;2024-01-27T08:05:11;4.13;;;1.40;;
35518;SDS011;21627;48.216;16.482;2024-01-27T08:07:38;4.80;;;1.95;;
35518;SDS011;21627;48.216;16.482;2024-01-27T08:10:05;3.20;;;1.63;;
35518;SDS011;21627;48.216;16.482;2024-01-27T08:12:32;7.17;;;2.43;;
35518;SDS011;21627;48.216;16.482;2024-01-27T08:15:00;5.23;;;1.83;;
35518;SDS011;21627;48.216;16.482;2024-01-27T08:17:28;7.10;;;1.90;;
35518;SDS011;21627;48.216;16.482;2024-01-27T08:19:55;5.93;;;1.93;;
35518;SDS011;21627;48.216;16.482;2024-01-27T08:22:22;5.47;;;2.03;;
35518;SDS011;21627;48.216;16.482;2024-01-27T08:24:49;4.77;;;1.60;;
35518;SDS011;21627;48.216;16.482;2024-01-27T08:27:16;6.50;;;1.87;;
35518;SDS011;21627;48.216;16.482;2024-01-27T08:29:43;2.73;;;1.57;;
35518;SDS011;21627;48.216;16.482;2024-01-27T08:32:10;7.33;;;1.90;;
35518;SDS011;21627;48.216;16.482;2024-01-27T08:34:39;5.73;;;2.20;;
35518;SDS011;21627;48.216;16.482;2024-01-27T08:37:14;7.22;;;1.60;;
35518;SDS011;21627;48.216;16.482;2024-01-27T08:39:45;7.83;;;2.07;;
35518;SDS011;21627;48.216;16.482;2024-01-27T08:42:13;8.60;;;2.80;;
35518;SDS011;21627;48.216;16.482;2024-01-27T08:44:40;5.37;;;2.00;;
35518;SDS011;21627;48.216;16.482;2024-01-27T08:47:07;15.18;;;2.03;;
35518;SDS011;21627;48.216;16.482;2024-01-27T08:49:34;7.87;;;2.00;;
35518;SDS011;21627;48.216;16.482;2024-01-27T08:52:02;4.00;;;1.67;;
35518;SDS011;21627;48.216;16.482;2024-01-27T08:54:29;3.92;;;1.85;;
35518;SDS011;21627;48.216;16.482;2024-01-27T08:56:57;15.60;;;2.28;;
35518;SDS011;21627;48.216;16.482;2024-01-27T08:59:24;9.03;;;2.20;;
35518;SDS011;21627;48.216;16.482;2024-01-27T09:01:51;5.95;;;2.13;;
35518;SDS011;21627;48.216;16.482;2024-01-27T09:04:18;8.48;;;1.98;;
35518;SDS011;21627;48.216;16.482;2024-01-27T09:06:45;5.38;;;2.08;;
35518;SDS011;21627;48.216;16.482;2024-01-27T09:09:13;10.88;;;1.83;;
35518;SDS011;21627;48.216;16.482;2024-01-27T09:11:40;4.43;;;2.00;;
35518;SDS011;21627;48.216;16.482;2024-01-27T09:14:07;6.03;;;2.03;;
35518;SDS011;21627;48.216;16.482;2024-01-27T09:16:35;7.63;;;2.30;;
35518;SDS011;21627;48.216;16.482;2024-01-27T09:19:02;9.63;;;2.30;;
35518;SDS011;21627;48.216;16.482;2024-01-27T09:21:29;7.30;;;2.50;;
35518;SDS011;21627;48.216;16.482;2024-01-27T09:23:59;6.75;;;2.10;;
35518;SDS011;21627;48.216;16.482;2024-01-27T09:26:28;6.40;;;2.45;;
35518;SDS011;21627;48.216;16.482;2024-01-27T09:28:56;12.23;;;2.95;;
35518;SDS011;21627;48.216;16.482;2024-01-27T09:31:23;8.38;;;2.20;;
35518;SDS011;21627;48.216;16.482;2024-01-27T09:33:52;7.20;;;2.55;;
35518;SDS011;21627;48.216;16.482;2024-01-27T09:36:21;9.77;;;2.80;;
35518;SDS011;21627;48.216;16.482;2024-01-27T09:38:48;6.68;;;2.83;;
35518;SDS011;21627;48.216;16.482;2024-01-27T09:41:16;12.90;;;2.42;;
35518;SDS011;21627;48.216;16.482;2024-01-27T09:43:45;3.00;;;2.05;;
35518;SDS011;21627;48.216;16.482;2024-01-27T09:46:13;9.25;;;3.13;;
35518;SDS011;21627;48.216;16.482;2024-01-27T09:48:42;8.68;;;2.83;;
35518;SDS011;21627;48.216;16.482;2024-01-27T09:51:10;13.23;;;3.33;;
35518;SDS011;21627;48.216;16.482;2024-01-27T09:53:37;7.20;;;2.83;;
35518;SDS011;21627;48.216;16.482;2024-01-27T09:56:04;7.15;;;2.60;;
35518;SDS011;21627;48.216;16.482;2024-01-27T09:58:33;10.27;;;3.00;;
35518;SDS011;21627;48.216;16.482;2024-01-27T10:01:01;12.25;;;3.40;;
35518;SDS011;21627;48.216;16.482;2024-01-27T10:03:29;6.45;;;2.88;;
35518;SDS011;21627;48.216;16.482;2024-01-27T10:05:57;9.23;;;2.92;;
35518;SDS011;21627;48.216;16.482;2024-01-27T10:08:25;33.78;;;5.28;;
35518;SDS011;21627;48.216;16.482;2024-01-27T10:10:55;6.63;;;2.53;;
35518;SDS011;21627;48.216;16.482;2024-01-27T10:13:23;6.43;;;2.45;;
35518;SDS011;21627;48.216;16.482;2024-01-27T10:16:06;10.23;;;2.83;;
35518;SDS011;21627;48.216;16.482;2024-01-27T10:18:35;15.00;;;3.30;;
35518;SDS011;21627;48.216;16.482;2024-01-27T10:21:15;12.20;;;3.00;;
35518;SDS011;21627;48.216;16.482;2024-01-27T10:23:46;18.60;;;2.63;;
35518;SDS011;21627;48.216;16.482;2024-01-27T10:26:13;6.70;;;2.65;;
35518;SDS011;21627;48.216;16.482;2024-01-27T10:28:40;12.10;;;2.67;;
35518;SDS011;21627;48.216;16.482;2024-01-27T10:31:11;4.60;;;2.28;;
35518;SDS011;21627;48.216;16.482;2024-01-27T10:33:39;8.18;;;3.03;;
35518;SDS011;21627;48.216;16.482;2024-01-27T10:36:17;5.70;;;2.17;;
35518;SDS011;21627;48.216;16.482;2024-01-27T10:38:44;6.07;;;2.60;;
35518;SDS011;21627;48.216;16.482;2024-01-27T10:41:12;9.85;;;2.67;;
35518;SDS011;21627;48.216;16.482;2024-01-27T10:43:53;8.68;;;2.47;;
35518;SDS011;21627;48.216;16.482;2024-01-27T10:46:23;5.07;;;2.05;;
35518;SDS011;21627;48.216;16.482;2024-01-27T10:48:52;8.23;;;2.55;;
35518;SDS011;21627;48.216;16.482;2024-01-27T10:51:22;8.45;;;2.65;;
35518;SDS011;21627;48.216;16.482;2024-01-27T10:54:00;8.63;;;2.42;;
35518;SDS011;21627;48.216;16.482;2024-01-27T10:56:31;9.57;;;3.00;;
35518;SDS011;21627;48.216;16.482;2024-01-27T10:58:59;13.55;;;3.00;;
35518;SDS011;21627;48.216;16.482;2024-01-27T11:01:28;5.10;;;2.25;;
35518;SDS011;21627;48.216;16.482;2024-01-27T11:03:58;6.15;;;2.30;;
35518;SDS011;21627;48.216;16.482;2024-01-27T11:06:27;10.30;;;2.53;;
35518;SDS011;21627;48.216;16.482;2024-01-27T11:08:57;7.70;;;2.78;;
35518;SDS011;21627;48.216;16.482;2024-01-27T11:11:30;7.55;;;2.10;;
35518;SDS011;21627;48.216;16.482;2024-01-27T11:13:58;12.60;;;1.90;;
35518;SDS011;21627;48.216;16.482;2024-01-27T11:16:25;5.80;;;1.73;;
35518;SDS011;21627;48.216;16.482;2024-01-27T11:18:53;7.03;;;1.73;;
35518;SDS011;21627;48.216;16.482;2024-01-27T11:21:21;6.05;;;1.90;;
35518;SDS011;21627;48.216;16.482;2024-01-27T11:23:48;5.97;;;1.65;;
35518;SDS011;21627;48.216;16.482;2024-01-27T11:26:22;10.57;;;2.58;;
35518;SDS011;21627;48.216;16.482;2024-01-27T11:28:50;13.50;;;1.95;;
35518;SDS011;21627;48.216;16.482;2024-01-27T11:31:17;10.13;;;2.42;;
35518;SDS011;21627;48.216;16.482;2024-01-27T11:33:47;7.90;;;2.38;;
35518;SDS011;21627;48.216;16.482;2024-01-27T11:36:21;8.25;;;1.77;;
35518;SDS011;21627;48.216;16.482;2024-01-27T11:38:50;6.00;;;1.73;;
35518;SDS011;21627;48.216;16.482;2024-01-27T11:41:25;6.78;;;2.20;;
35518;SDS011;21627;48.216;16.482;2024-01-27T11:43:59;6.47;;;1.70;;
35518;SDS011;21627;48.216;16.482;2024-01-27T11:46:26;12.63;;;1.88;;
35518;SDS011;21627;48.216;16.482;2024-01-27T11:48:54;5.95;;;1.92;;
35518;SDS011;21627;48.216;16.482;2024-01-27T11:51:21;10.77;;;1.90;;
35518;SDS011;21627;48.216;16.482;2024-01-27T11:53:50;8.93;;;2.65;;
35518;SDS011;21627;48.216;16.482;2024-01-27T11:56:17;6.10;;;1.60;;
35518;SDS011;21627;48.216;16.482;2024-01-27T11:58:48;10.10;;;2.22;;
35518;SDS011;21627;48.216;16.482;2024-01-27T12:01:16;4.88;;;1.60;;
35518;SDS011;21627;48.216;16.482;2024-01-27T12:03:44;8.15;;;2.00;;
35518;SDS011;21627;48.216;16.482;2024-01-27T12:06:12;8.05;;;1.90;;
35518;SDS011;21627;48.216;16.482;2024-01-27T12:08:41;10.10;;;1.98;;
35518;SDS011;21627;48.216;16.482;2024-01-27T12:11:15;5.70;;;2.20;;
35518;SDS011;21627;48.216;16.482;2024-01-27T12:13:49;6.70;;;2.08;;
35518;SDS011;21627;48.216;16.482;2024-01-27T12:16:18;5.47;;;1.95;;
35518;SDS011;21627;48.216;16.482;2024-01-27T12:18:47;8.68;;;1.92;;
35518;SDS011;21627;48.216;16.482;2024-01-27T12:21:22;7.53;;;2.13;;
35518;SDS011;21627;48.216;16.482;2024-01-27T12:23:54;7.57;;;1.80;;
35518;SDS011;21627;48.216;16.482;2024-01-27T12:26:27;5.60;;;2.55;;
35518;SDS011;21627;48.216;16.482;2024-01-27T12:28:56;6.45;;;1.75;;
35518;SDS011;21627;48.216;16.482;2024-01-27T12:31:26;6.45;;;1.50;;
35518;SDS011;21627;48.216;16.482;2024-01-27T12:33:54;5.53;;;2.03;;
35518;SDS011;21627;48.216;16.482;2024-01-27T12:36:23;11.25;;;2.50;;
35518;SDS011;21627;48.216;16.482;2024-01-27T12:38:54;5.65;;;1.85;;
35518;SDS011;21627;48.216;16.482;2024-01-27T12:41:27;4.72;;;1.80;;
35518;SDS011;21627;48.216;16.482;2024-01-27T12:43:55;7.75;;;2.30;;
35518;SDS011;21627;48.216;16.482;2024-01-27T12:46:23;3.88;;;1.25;;
35518;SDS011;21627;48.216;16.482;2024-01-27T12:48:50;5.72;;;1.80;;
35518;SDS011;21627;48.216;16.482;2024-01-27T12:51:18;9.88;;;1.73;;
35518;SDS011;21627;48.216;16.482;2024-01-27T12:53:46;13.13;;;1.60;;
35518;SDS011;21627;48.216;16.482;2024-01-27T12:56:14;8.57;;;1.98;;
35518;SDS011;21627;48.216;16.482;2024-01-27T12:58:42;8.55;;;2.45;;
35518;SDS011;21627;48.216;16.482;2024-01-27T13:01:09;8.60;;;2.13;;
35518;SDS011;21627;48.216;16.482;2024-01-27T13:03:37;12.43;;;2.75;;
35518;SDS011;21627;48.216;16.482;2024-01-27T13:06:07;4.47;;;1.85;;
35518;SDS011;21627;48.216;16.482;2024-01-27T13:08:34;9.25;;;2.25;;
35518;SDS011;21627;48.216;16.482;2024-01-27T13:11:01;9.90;;;2.50;;
35518;SDS011;21627;48.216;16.482;2024-01-27T13:13:29;9.98;;;2.17;;
35518;SDS011;21627;48.216;16.482;2024-01-27T13:15:56;8.05;;;2.33;;
35518;SDS011;21627;48.216;16.482;2024-01-27T13:18:23;7.05;;;2.38;;
35518;SDS011;21627;48.216;16.482;2024-01-27T13:20:50;8.48;;;2.17;;
35518;SDS011;21627;48.216;16.482;2024-01-27T13:23:17;10.27;;;2.03;;
35518;SDS011;21627;48.216;16.482;2024-01-27T13:25:44;12.07;;;2.47;;
35518;SDS011;21627;48.216;16.482;2024-01-27T13:28:32;12.30;;;2.15;;
35518;SDS011;21627;48.216;16.482;2024-01-27T13:30:59;11.07;;;2.15;;
35518;SDS011;21627;48.216;16.482;2024-01-27T13:33:27;6.80;;;1.75;;
35518;SDS011;21627;48.216;16.482;2024-01-27T13:35:55;12.77;;;2.30;;
35518;SDS011;21627;48.216;16.482;2024-01-27T13:38:22;7.18;;;1.92;;
35518;SDS011;21627;48.216;16.482;2024-01-27T13:40:50;6.82;;;1.77;;
35518;SDS011;21627;48.216;16.482;2024-01-27T13:43:17;6.25;;;1.98;;
35518;SDS011;21627;48.216;16.482;2024-01-27T13:45:44;7.22;;;2.17;;
35518;SDS011;21627;48.216;16.482;2024-01-27T13:48:13;6.13;;;1.98;;
35518;SDS011;21627;48.216;16.482;2024-01-27T13:50:42;8.68;;;2.00;;
35518;SDS011;21627;48.216;16.482;2024-01-27T13:53:09;9.40;;;2.35;;
35518;SDS011;21627;48.216;16.482;2024-01-27T13:55:36;5.53;;;1.75;;
35518;SDS011;21627;48.216;16.482;2024-01-27T13:58:04;9.65;;;1.90;;
35518;SDS011;21627;48.216;16.482;2024-01-27T14:00:31;7.13;;;2.20;;
35518;SDS011;21627;48.216;16.482;2024-01-27T14:03:01;4.25;;;1.48;;
35518;SDS011;21627;48.216;16.482;2024-01-27T14:05:29;8.07;;;2.58;;
35518;SDS011;21627;48.216;16.482;2024-01-27T14:07:56;6.38;;;2.10;;
35518;SDS011;21627;48.216;16.482;2024-01-27T14:10:23;8.57;;;2.20;;
35518;SDS011;21627;48.216;16.482;2024-01-27T14:12:51;8.30;;;1.83;;
35518;SDS011;21627;48.216;16.482;2024-01-27T14:15:18;9.43;;;2.80;;
35518;SDS011;21627;48.216;16.482;2024-01-27T14:17:47;7.05;;;2.08;;
35518;SDS011;21627;48.216;16.482;2024-01-27T14:20:15;9.77;;;2.53;;
35518;SDS011;21627;48.216;16.482;2024-01-27T14:22:43;7.10;;;2.30;;
35518;SDS011;21627;48.216;16.482;2024-01-27T14:25:10;6.90;;;2.08;;
35518;SDS011;21627;48.216;16.482;2024-01-27T14:27:38;8.02;;;2.10;;
35518;SDS011;21627;48.216;16.482;2024-01-27T14:30:05;9.48;;;2.28;;
35518;SDS011;21627;48.216;16.482;2024-01-27T14:32:33;8.07;;;2.22;;
35518;SDS011;21627;48.216;16.482;2024-01-27T14:35:01;5.97;;;1.88;;
35518;SDS011;21627;48.216;16.482;2024-01-27T14:37:32;7.63;;;2.20;;
35518;SDS011;21627;48.216;16.482;2024-01-27T14:40:00;5.53;;;1.70;;
35518;SDS011;21627;48.216;16.482;2024-01-27T14:42:27;6.53;;;1.85;;